createdAt,value
2017-12-02T00:01:55.401Z,90.10
2017-12-02T00:04:23.727Z,90.10
2017-12-02T00:06:53.396Z,90.10
2017-12-02T00:09:21.738Z,90.10
2017-12-02T00:11:50.045Z,90.10
2017-12-02T00:14:18.347Z,90.10
2017-12-02T00:16:46.684Z,90.10
2017-12-02T00:19:15.778Z,90.10
2017-12-02T00:21:44.864Z,90.10
2017-12-02T00:24:13.928Z,90.10
2017-12-02T00:26:42.294Z,90.10
2017-12-02T00:29:10.637Z,90.10
2017-12-02T00:31:38.967Z,90.10
2017-12-02T00:34:07.320Z,90.10
2017-12-02T00:36:35.646Z,90.20
2017-12-02T00:39:03.948Z,90.20
2017-12-02T00:41:33.017Z,90.30
2017-12-02T00:44:01.397Z,90.30
2017-12-02T00:46:29.664Z,90.20
2017-12-02T00:48:57.989Z,90.20
2017-12-02T00:51:27.066Z,90.20
2017-12-02T00:53:55.380Z,90.20
2017-12-02T00:56:25.028Z,90.10
2017-12-02T00:58:53.368Z,90.10
2017-12-02T01:01:22.429Z,90.00
2017-12-02T01:03:50.756Z,90.00
2017-12-02T01:06:19.840Z,90.10
2017-12-02T01:08:48.918Z,90.10
2017-12-02T01:11:17.244Z,90.00
2017-12-02T01:13:45.556Z,90.00
2017-12-02T01:16:13.881Z,90.00
2017-12-02T01:18:42.972Z,90.00
2017-12-02T01:21:12.045Z,90.00
2017-12-02T01:23:40.367Z,90.00
2017-12-02T01:26:09.464Z,90.00
2017-12-02T01:28:38.546Z,90.00
2017-12-02T01:31:08.373Z,90.00
2017-12-02T01:33:37.439Z,89.90
2017-12-02T01:36:05.758Z,89.90
2017-12-02T01:38:34.814Z,89.80
2017-12-02T01:41:03.154Z,89.70
2017-12-02T01:43:31.486Z,89.60
2017-12-02T01:45:59.793Z,89.20
2017-12-02T01:48:28.902Z,88.80
2017-12-02T01:50:57.963Z,88.50
2017-12-02T01:53:26.282Z,88.60
2017-12-02T01:55:54.618Z,88.50
2017-12-02T01:58:22.958Z,88.40
2017-12-02T02:00:52.314Z,88.40
2017-12-02T02:03:20.629Z,88.50
2017-12-02T02:05:49.714Z,88.30
2017-12-02T02:08:18.786Z,88.40
2017-12-02T02:10:47.096Z,88.40
2017-12-02T02:13:16.152Z,88.30
2017-12-02T02:15:44.487Z,88.30
2017-12-02T02:18:12.815Z,88.30
2017-12-02T02:20:41.116Z,88.20
2017-12-02T02:23:10.945Z,88.10
2017-12-02T02:25:40.134Z,87.90
2017-12-02T02:28:09.232Z,87.90
2017-12-02T02:30:38.312Z,87.50
2017-12-02T02:33:06.633Z,87.50
2017-12-02T02:35:35.748Z,87.10
2017-12-02T02:38:04.146Z,87.00
2017-12-02T02:40:32.460Z,86.90
2017-12-02T02:43:00.775Z,87.00
2017-12-02T02:45:29.877Z,87.00
2017-12-02T02:47:58.972Z,87.00
2017-12-02T02:50:28.044Z,86.90
2017-12-02T02:52:56.375Z,86.90
2017-12-02T02:55:24.700Z,86.70
2017-12-02T02:57:53.036Z,86.70
2017-12-02T03:00:21.348Z,86.70
2017-12-02T03:02:49.682Z,86.70
2017-12-02T03:05:18.784Z,86.50
2017-12-02T03:07:47.122Z,86.40
2017-12-02T03:10:15.448Z,86.10
2017-12-02T03:12:43.804Z,86.00
2017-12-02T03:15:12.898Z,85.80
2017-12-02T03:17:41.228Z,85.80
2017-12-02T03:20:09.564Z,85.80
2017-12-02T03:22:38.632Z,85.90
2017-12-02T03:25:06.957Z,85.80
2017-12-02T03:27:36.064Z,86.00
2017-12-02T03:30:04.368Z,86.00
2017-12-02T03:32:32.686Z,86.20
2017-12-02T03:35:01.037Z,86.20
2017-12-02T03:37:29.342Z,86.20
2017-12-02T03:39:57.683Z,86.40
2017-12-02T03:42:26.022Z,86.60
2017-12-02T03:44:55.094Z,86.60
2017-12-02T03:47:23.422Z,86.60
2017-12-02T03:49:52.504Z,86.60
2017-12-02T03:52:21.612Z,86.80
2017-12-02T03:54:50.798Z,86.90
2017-12-02T03:57:19.896Z,87.10
2017-12-02T03:59:48.224Z,87.10
2017-12-02T04:02:16.560Z,87.20
2017-12-02T04:04:44.925Z,87.10
2017-12-02T04:07:13.254Z,87.10
2017-12-02T04:09:41.562Z,87.10
2017-12-02T04:12:09.874Z,87.20
2017-12-02T04:14:38.211Z,87.30
2017-12-02T04:17:06.596Z,87.40
2017-12-02T04:19:34.915Z,87.40
2017-12-02T04:22:03.248Z,87.30
2017-12-02T04:24:31.557Z,87.50
2017-12-02T04:26:59.890Z,88.50
2017-12-02T04:29:28.315Z,87.90
2017-12-02T04:31:56.619Z,88.80
2017-12-02T04:34:24.934Z,89.70
2017-12-02T04:36:54.010Z,89.10
2017-12-02T04:39:23.116Z,88.30
2017-12-02T04:41:52.373Z,89.00
2017-12-02T04:44:20.702Z,88.90
2017-12-02T04:46:49.818Z,90.10
2017-12-02T04:49:18.138Z,90.10
2017-12-02T04:51:46.851Z,90.00
2017-12-02T04:54:15.162Z,89.80
2017-12-02T04:56:43.498Z,89.50
2017-12-02T04:59:11.796Z,89.80
2017-12-02T05:01:40.142Z,90.00
2017-12-02T05:04:08.458Z,89.60
2017-12-02T05:06:36.772Z,89.10
2017-12-02T05:09:05.846Z,89.70
2017-12-02T05:11:34.164Z,89.60
2017-12-02T05:14:02.486Z,89.70
2017-12-02T05:16:30.812Z,89.90
2017-12-02T05:18:59.898Z,89.00
2017-12-02T05:21:28.966Z,89.00
2017-12-02T05:23:57.316Z,88.90
2017-12-02T05:26:25.642Z,89.30
2017-12-02T05:28:54.728Z,89.70
2017-12-02T05:31:23.046Z,89.80
2017-12-02T05:33:52.134Z,89.70
2017-12-02T05:36:21.238Z,89.90
2017-12-02T05:38:50.324Z,89.70
2017-12-02T05:41:18.619Z,89.70
2017-12-02T05:43:47.690Z,89.10
2017-12-02T05:46:17.603Z,88.90
2017-12-02T05:48:46.270Z,89.60
2017-12-02T05:51:14.721Z,89.40
2017-12-02T05:53:43.033Z,89.80
2017-12-02T05:56:11.340Z,89.60
2017-12-02T05:58:39.639Z,89.50
2017-12-02T06:01:08.755Z,89.20
2017-12-02T06:03:37.931Z,89.10
2017-12-02T06:06:06.322Z,89.30
2017-12-02T06:08:35.450Z,88.90
2017-12-02T06:11:03.756Z,88.90
2017-12-02T06:13:32.058Z,88.70
2017-12-02T06:16:01.934Z,88.30
2017-12-02T06:18:30.276Z,88.20
2017-12-02T06:20:59.604Z,88.20
2017-12-02T06:23:27.920Z,88.20
2017-12-02T06:25:56.280Z,88.70
2017-12-02T06:28:24.780Z,88.60
2017-12-02T06:30:53.094Z,88.20
2017-12-02T06:33:22.169Z,88.00
2017-12-02T06:35:50.485Z,87.90
2017-12-02T06:38:19.555Z,88.40
2017-12-02T06:40:47.890Z,88.30
2017-12-02T06:43:16.202Z,88.40
2017-12-02T06:45:44.541Z,88.50
2017-12-02T06:48:12.842Z,88.40
2017-12-02T06:50:41.177Z,88.40
2017-12-02T06:53:09.522Z,88.30
2017-12-02T06:55:37.854Z,88.20
2017-12-02T06:58:06.922Z,88.10
2017-12-02T07:00:35.260Z,88.10
2017-12-02T07:03:03.563Z,88.60
2017-12-02T07:05:31.875Z,87.70
2017-12-02T07:08:00.976Z,87.50
2017-12-02T07:10:30.234Z,87.40
2017-12-02T07:12:59.815Z,88.00
2017-12-02T07:15:29.101Z,87.40
2017-12-02T07:18:00.786Z,87.30
2017-12-02T07:20:29.092Z,87.20
2017-12-02T07:22:57.408Z,87.50
2017-12-02T07:25:26.667Z,88.00
2017-12-02T07:27:54.972Z,88.00
2017-12-02T07:30:24.169Z,88.00
2017-12-02T07:32:53.223Z,88.30
2017-12-02T07:35:22.596Z,88.50
2017-12-02T07:37:51.077Z,88.40
2017-12-02T07:40:21.417Z,88.20
2017-12-02T07:42:50.902Z,87.90
2017-12-02T07:45:19.861Z,87.80
2017-12-02T07:47:48.745Z,88.00
2017-12-02T07:50:17.073Z,88.60
2017-12-02T07:52:45.826Z,88.30
2017-12-02T07:55:17.557Z,87.80
2017-12-02T07:57:48.152Z,87.60
2017-12-02T08:00:16.568Z,87.20
2017-12-02T08:02:46.766Z,87.80
2017-12-02T08:05:16.557Z,87.70
2017-12-02T08:07:44.899Z,87.80
2017-12-02T08:10:13.225Z,87.70
2017-12-02T08:12:41.567Z,87.50
2017-12-02T08:15:09.877Z,87.60
2017-12-02T08:17:38.285Z,87.30
2017-12-02T08:20:06.665Z,86.90
2017-12-02T08:22:36.035Z,86.50
2017-12-02T08:25:04.359Z,86.40
2017-12-02T08:27:33.555Z,86.60
2017-12-02T08:30:02.726Z,85.50
2017-12-02T08:32:31.077Z,85.50
2017-12-02T08:34:59.403Z,85.70
2017-12-02T08:37:27.744Z,85.70
2017-12-02T08:39:56.051Z,85.90
2017-12-02T08:42:24.352Z,86.10
2017-12-02T08:44:52.662Z,86.00
2017-12-02T08:47:22.027Z,85.00
2017-12-02T08:49:50.335Z,85.00
2017-12-02T08:52:19.471Z,85.00
2017-12-02T08:54:48.049Z,84.80
2017-12-02T08:57:16.661Z,84.80
2017-12-02T08:59:46.046Z,85.90
2017-12-02T09:02:15.266Z,85.90
2017-12-02T09:04:48.245Z,85.00
2017-12-02T09:07:17.379Z,85.50
2017-12-02T09:09:45.733Z,85.30
2017-12-02T09:12:14.053Z,85.30
2017-12-02T09:14:43.142Z,85.80
2017-12-02T09:17:11.466Z,85.00
2017-12-02T09:19:39.803Z,85.10
2017-12-02T09:22:08.153Z,85.40
2017-12-02T09:24:36.463Z,86.20
2017-12-02T09:27:04.785Z,86.20
2017-12-02T09:29:33.157Z,85.70
2017-12-02T09:32:02.242Z,85.50
2017-12-02T09:34:31.325Z,85.90
2017-12-02T09:37:00.413Z,85.60
2017-12-02T09:39:28.772Z,85.60
2017-12-02T09:41:57.423Z,85.60
2017-12-02T09:44:26.495Z,85.60
2017-12-02T09:46:56.315Z,85.50
2017-12-02T09:49:24.737Z,85.60
2017-12-02T09:51:55.111Z,85.20
2017-12-02T09:54:23.443Z,84.70
2017-12-02T09:56:51.750Z,84.50
2017-12-02T09:59:20.051Z,84.30
2017-12-02T10:01:51.814Z,84.40
2017-12-02T10:04:20.125Z,83.90
2017-12-02T10:06:49.533Z,83.90
2017-12-02T10:09:18.091Z,83.80
2017-12-02T10:11:46.399Z,83.60
2017-12-02T10:14:15.479Z,83.30
2017-12-02T10:16:45.263Z,83.00
2017-12-02T10:19:13.555Z,82.90
2017-12-02T10:21:41.918Z,82.50
2017-12-02T10:24:10.221Z,82.40
2017-12-02T10:26:38.537Z,82.40
2017-12-02T10:29:06.891Z,82.50
2017-12-02T10:31:35.977Z,82.30
2017-12-02T10:34:04.281Z,82.30
2017-12-02T10:36:32.593Z,82.40
2017-12-02T10:39:00.929Z,82.50
2017-12-02T10:41:29.243Z,83.30
2017-12-02T10:43:57.561Z,83.80
2017-12-02T10:46:25.876Z,84.10
2017-12-02T10:48:54.190Z,84.20
2017-12-02T10:51:22.497Z,84.40
2017-12-02T10:53:50.813Z,84.40
2017-12-02T10:56:19.111Z,84.50
2017-12-02T10:58:48.225Z,84.00
2017-12-02T11:01:17.259Z,84.00
2017-12-02T11:03:45.586Z,84.30
2017-12-02T11:06:14.717Z,83.80
2017-12-02T11:08:43.905Z,84.80
2017-12-02T11:11:12.321Z,84.80
2017-12-02T11:13:40.654Z,87.50
2017-12-02T11:16:09.747Z,88.50
2017-12-02T11:18:39.088Z,89.40
2017-12-02T11:21:08.203Z,89.30
2017-12-02T11:23:36.505Z,89.60
2017-12-02T11:26:04.803Z,88.60
2017-12-02T11:28:33.447Z,87.20
2017-12-02T11:31:02.570Z,85.10
2017-12-02T11:33:30.889Z,85.10
2017-12-02T11:35:59.203Z,85.30
2017-12-02T11:38:27.731Z,86.10
2017-12-02T11:40:56.073Z,86.50
2017-12-02T11:43:24.395Z,85.60
2017-12-02T11:45:53.471Z,85.10
2017-12-02T11:48:21.799Z,85.10
2017-12-02T11:50:50.859Z,84.30
2017-12-02T11:53:19.943Z,83.50
2017-12-02T11:55:48.263Z,83.60
2017-12-02T11:58:17.501Z,83.00
2017-12-02T12:00:45.802Z,83.00
2017-12-02T12:03:14.135Z,82.70
2017-12-02T12:05:43.207Z,82.00
2017-12-02T12:08:11.852Z,82.00
2017-12-02T12:10:40.152Z,81.70
2017-12-02T12:13:08.479Z,81.50
2017-12-02T12:15:37.551Z,81.70
2017-12-02T12:18:07.096Z,82.20
2017-12-02T12:20:35.432Z,82.20
2017-12-02T12:23:05.275Z,83.50
2017-12-02T12:25:34.361Z,84.30
2017-12-02T12:28:02.695Z,84.30
2017-12-02T12:30:31.011Z,84.50
2017-12-02T12:32:59.333Z,83.30
2017-12-02T12:35:29.101Z,82.80
2017-12-02T12:37:57.487Z,82.40
2017-12-02T12:40:27.296Z,82.40
2017-12-02T12:42:55.660Z,82.30
2017-12-02T12:45:24.015Z,83.50
2017-12-02T12:47:52.327Z,83.70
2017-12-02T12:50:20.642Z,83.20
2017-12-02T12:52:48.961Z,83.10
2017-12-02T12:55:17.262Z,82.50
2017-12-02T12:57:45.574Z,82.20
2017-12-02T13:00:13.895Z,83.00
2017-12-02T13:02:42.199Z,82.70
2017-12-02T13:05:10.535Z,82.60
2017-12-02T13:07:39.947Z,82.90
2017-12-02T13:10:08.577Z,83.70
2017-12-02T13:12:36.902Z,82.40
2017-12-02T13:15:05.975Z,82.00
2017-12-02T13:17:34.359Z,82.00
2017-12-02T13:20:03.455Z,82.40
2017-12-02T13:22:32.641Z,83.10
2017-12-02T13:25:01.011Z,83.20
2017-12-02T13:27:29.343Z,83.50
2017-12-02T13:29:58.491Z,82.20
2017-12-02T13:32:26.789Z,82.00
2017-12-02T13:34:55.101Z,81.60
2017-12-02T13:37:23.441Z,81.60
2017-12-02T13:39:51.740Z,81.10
2017-12-02T13:42:20.071Z,81.70
2017-12-02T13:44:48.395Z,81.80
2017-12-02T13:47:16.714Z,81.40
2017-12-02T13:49:45.876Z,81.80
2017-12-02T13:52:14.158Z,81.80
2017-12-02T13:54:42.488Z,81.10
2017-12-02T13:57:10.808Z,80.70
2017-12-02T13:59:39.175Z,81.50
2017-12-02T14:02:07.525Z,82.00
2017-12-02T14:04:36.604Z,84.20
2017-12-02T14:07:05.843Z,83.60
2017-12-02T14:09:34.146Z,82.80
2017-12-02T14:12:02.466Z,82.30
2017-12-02T14:14:31.539Z,83.20
2017-12-02T14:16:59.878Z,83.10
2017-12-02T14:19:28.190Z,82.10
2017-12-02T14:21:57.358Z,81.80
2017-12-02T14:24:25.659Z,83.10
2017-12-02T14:26:53.970Z,84.50
2017-12-02T14:29:23.845Z,82.90
2017-12-02T14:31:52.189Z,82.90
2017-12-02T14:34:21.355Z,84.30
2017-12-02T14:36:50.765Z,84.30
2017-12-02T14:39:19.193Z,84.30
2017-12-02T14:41:47.602Z,85.00
2017-12-02T14:44:16.013Z,84.60
2017-12-02T14:46:44.382Z,83.50
2017-12-02T14:49:12.771Z,83.40
2017-12-02T14:51:41.157Z,85.70
2017-12-02T14:54:09.954Z,85.90
2017-12-02T14:56:38.326Z,85.20
2017-12-02T14:59:07.554Z,83.90
2017-12-02T15:01:36.650Z,85.20
2017-12-02T15:04:06.573Z,84.90
2017-12-02T15:06:34.976Z,84.90
2017-12-02T15:09:05.480Z,84.40
2017-12-02T15:11:33.900Z,84.40
2017-12-02T15:14:02.209Z,86.00
2017-12-02T15:16:32.238Z,86.10
2017-12-02T15:19:01.069Z,85.30
2017-12-02T15:21:30.185Z,84.30
2017-12-02T15:23:58.494Z,84.20
2017-12-02T15:26:26.806Z,83.50
2017-12-02T15:28:55.155Z,83.20
2017-12-02T15:31:23.476Z,82.60
2017-12-02T15:33:52.556Z,82.20
2017-12-02T15:36:21.120Z,82.10
2017-12-02T15:38:49.443Z,81.90
2017-12-02T15:41:18.517Z,82.60
2017-12-02T15:43:47.014Z,82.00
2017-12-02T15:46:15.330Z,82.70
2017-12-02T15:48:44.442Z,82.60
2017-12-02T15:51:13.483Z,82.60
2017-12-02T15:53:43.996Z,82.90
2017-12-02T15:56:16.170Z,83.00
2017-12-02T15:58:45.006Z,83.00
2017-12-02T16:01:13.899Z,82.50
2017-12-02T16:03:43.009Z,82.60
2017-12-02T16:06:12.102Z,82.80
2017-12-02T16:08:41.188Z,82.40
2017-12-02T16:11:09.536Z,82.40
2017-12-02T16:13:37.864Z,82.50
2017-12-02T16:16:06.185Z,82.40
2017-12-02T16:18:34.494Z,82.50
2017-12-02T16:21:02.830Z,82.90
2017-12-02T16:23:31.138Z,82.70
2017-12-02T16:25:59.434Z,83.20
2017-12-02T16:28:27.785Z,84.30
2017-12-02T16:30:56.120Z,84.60
2017-12-02T16:33:25.204Z,85.50
2017-12-02T16:35:53.538Z,85.50
2017-12-02T16:38:21.832Z,84.90
2017-12-02T16:40:50.150Z,84.50
2017-12-02T16:43:19.230Z,84.50
2017-12-02T16:45:47.558Z,84.40
2017-12-02T16:48:15.884Z,84.20
2017-12-02T16:50:44.194Z,84.70
2017-12-02T16:53:12.511Z,84.00
2017-12-02T16:55:40.805Z,83.80
2017-12-02T16:58:09.136Z,84.10
2017-12-02T17:00:37.460Z,84.20
2017-12-02T17:03:05.836Z,84.80
2017-12-02T17:05:34.326Z,84.90
2017-12-02T17:08:02.657Z,85.10
2017-12-02T17:10:30.958Z,84.60
2017-12-02T17:13:00.023Z,83.90
2017-12-02T17:15:28.370Z,83.70
2017-12-02T17:17:56.664Z,83.70
2017-12-02T17:20:25.104Z,83.80
2017-12-02T17:22:55.660Z,83.50
2017-12-02T17:25:24.386Z,83.50
2017-12-02T17:27:54.024Z,83.20
2017-12-02T17:30:23.760Z,83.40
2017-12-02T17:32:52.074Z,84.10
2017-12-02T17:35:20.536Z,83.50
2017-12-02T17:37:48.990Z,85.00
2017-12-02T17:40:17.366Z,85.40
2017-12-02T17:42:48.182Z,85.40
2017-12-02T17:45:17.652Z,85.20
2017-12-02T17:47:46.944Z,85.10
2017-12-02T17:50:15.255Z,85.10
2017-12-02T17:52:46.316Z,84.50
2017-12-02T17:55:15.188Z,85.30
2017-12-02T17:57:43.496Z,85.30
2017-12-02T18:00:12.711Z,85.70
2017-12-02T18:02:41.880Z,84.70
2017-12-02T18:05:12.137Z,84.60
2017-12-02T18:07:40.893Z,84.40
2017-12-02T18:10:09.194Z,85.00
2017-12-02T18:12:39.269Z,84.70
2017-12-02T18:15:07.562Z,84.90
2017-12-02T18:17:36.439Z,85.00
2017-12-02T18:20:04.789Z,84.80
2017-12-02T18:22:33.145Z,85.00
2017-12-02T18:25:01.466Z,85.10
2017-12-02T18:27:34.200Z,85.20
2017-12-02T18:30:04.912Z,85.20
2017-12-02T18:32:38.270Z,85.30
2017-12-02T18:35:07.377Z,85.40
2017-12-02T18:37:39.945Z,84.90
2017-12-02T18:40:09.046Z,84.80
2017-12-02T18:42:38.277Z,84.60
2017-12-02T18:45:06.841Z,84.60
2017-12-02T18:47:35.906Z,83.80
2017-12-02T18:50:05.077Z,83.70
2017-12-02T18:52:33.394Z,84.20
2017-12-02T18:55:01.714Z,83.90
2017-12-02T18:57:30.031Z,83.50
2017-12-02T18:59:58.366Z,83.40
2017-12-02T19:02:26.684Z,84.00
2017-12-02T19:04:54.989Z,84.20
2017-12-02T19:07:23.321Z,84.00
2017-12-02T19:09:51.646Z,84.40
2017-12-02T19:12:20.077Z,84.30
2017-12-02T19:14:48.423Z,84.50
2017-12-02T19:17:17.563Z,84.10
2017-12-02T19:19:45.884Z,84.90
2017-12-02T19:22:14.229Z,84.10
2017-12-02T19:24:43.381Z,84.50
2017-12-02T19:27:11.693Z,84.50
2017-12-02T19:29:40.048Z,85.10
2017-12-02T19:32:09.140Z,83.40
2017-12-02T19:34:38.341Z,83.20
2017-12-02T19:37:07.407Z,83.10
2017-12-02T19:39:35.761Z,83.00
2017-12-02T19:42:04.102Z,83.30
2017-12-02T19:44:34.053Z,83.60
2017-12-02T19:47:02.559Z,83.50
2017-12-02T19:49:30.910Z,84.20
2017-12-02T19:52:00.073Z,83.80
2017-12-02T19:54:28.424Z,83.80
2017-12-02T19:56:56.876Z,83.70
2017-12-02T19:59:27.595Z,84.10
2017-12-02T20:01:56.188Z,84.10
2017-12-02T20:04:25.362Z,84.50
2017-12-02T20:06:54.421Z,84.20
2017-12-02T20:09:22.765Z,84.20
2017-12-02T20:11:51.841Z,84.30
2017-12-02T20:14:20.155Z,83.70
2017-12-02T20:16:49.450Z,83.20
2017-12-02T20:19:18.524Z,82.90
2017-12-02T20:21:46.843Z,82.90
2017-12-02T20:24:15.198Z,82.50
2017-12-02T20:26:44.321Z,82.50
2017-12-02T20:29:12.629Z,82.50
2017-12-02T20:31:40.942Z,82.50
2017-12-02T20:34:09.383Z,82.20
2017-12-02T20:36:37.877Z,82.30
2017-12-02T20:39:06.215Z,82.30
2017-12-02T20:41:35.327Z,82.00
2017-12-02T20:44:04.421Z,82.10
2017-12-02T20:46:33.484Z,82.50
2017-12-02T20:49:01.809Z,82.40
2017-12-02T20:51:30.177Z,82.50
2017-12-02T20:53:59.241Z,82.20
2017-12-02T20:56:29.069Z,82.10
2017-12-02T20:58:57.362Z,82.00
2017-12-02T21:01:26.468Z,81.80
2017-12-02T21:03:54.743Z,82.20
2017-12-02T21:06:23.869Z,82.00
2017-12-02T21:08:53.223Z,81.90
2017-12-02T21:11:21.714Z,81.80
2017-12-02T21:13:50.795Z,81.90
2017-12-02T21:16:19.151Z,82.00
2017-12-02T21:18:47.542Z,82.20
2017-12-02T21:21:16.961Z,81.70
2017-12-02T21:23:45.415Z,82.00
2017-12-02T21:26:13.806Z,81.80
2017-12-02T21:28:42.213Z,81.80
2017-12-02T21:31:10.538Z,81.70
2017-12-02T21:33:39.645Z,81.20
2017-12-02T21:36:08.779Z,81.20
2017-12-02T21:38:37.077Z,81.10
2017-12-02T21:41:05.415Z,81.10
2017-12-02T21:43:33.723Z,81.50
2017-12-02T21:46:02.027Z,81.60
2017-12-02T21:48:31.093Z,81.80
2017-12-02T21:50:59.405Z,81.80
2017-12-02T21:53:27.708Z,81.50
2017-12-02T21:55:56.948Z,82.20
2017-12-02T21:58:25.268Z,82.20
2017-12-02T22:00:53.579Z,81.80
2017-12-02T22:03:21.890Z,81.80
2017-12-02T22:05:51.048Z,81.50
2017-12-02T22:08:20.139Z,81.80
2017-12-02T22:10:49.226Z,81.50
2017-12-02T22:13:18.311Z,81.50
2017-12-02T22:15:46.617Z,81.40
2017-12-02T22:18:14.962Z,81.50
2017-12-02T22:20:46.655Z,81.80
2017-12-02T22:23:14.967Z,81.70
2017-12-02T22:25:43.297Z,81.90
2017-12-02T22:28:11.635Z,81.90
2017-12-02T22:30:39.949Z,82.20
2017-12-02T22:33:08.275Z,82.00
2017-12-02T22:35:37.363Z,82.70
2017-12-02T22:38:05.679Z,82.60
2017-12-02T22:40:34.048Z,82.50
2017-12-02T22:43:02.371Z,82.60
2017-12-02T22:45:30.700Z,82.50
2017-12-02T22:47:59.795Z,82.30
2017-12-02T22:50:28.876Z,82.50
2017-12-02T22:52:57.313Z,82.50
2017-12-02T22:55:25.628Z,82.40
2017-12-02T22:57:53.928Z,82.70
2017-12-02T23:00:23.007Z,82.80
2017-12-02T23:02:51.323Z,82.20
2017-12-02T23:05:19.660Z,82.10
2017-12-02T23:07:47.985Z,82.40
2017-12-02T23:10:16.309Z,82.20
2017-12-02T23:12:44.641Z,82.20
2017-12-02T23:15:13.729Z,82.50
2017-12-02T23:17:42.856Z,82.40
2017-12-02T23:20:11.196Z,82.40
2017-12-02T23:22:40.999Z,82.90
2017-12-02T23:25:09.337Z,82.80
2017-12-02T23:27:37.641Z,83.40
2017-12-02T23:30:05.961Z,82.50
2017-12-02T23:32:34.283Z,82.60
2017-12-02T23:35:02.607Z,82.40
2017-12-02T23:37:30.942Z,82.60
2017-12-02T23:40:00.142Z,82.80
2017-12-02T23:42:28.559Z,82.90
2017-12-02T23:44:56.877Z,82.60
2017-12-02T23:47:25.968Z,82.60
2017-12-02T23:49:54.282Z,82.60
2017-12-02T23:52:23.404Z,83.00
2017-12-02T23:54:51.731Z,83.10
2017-12-02T23:57:20.816Z,82.90
2017-12-02T23:59:49.884Z,82.60
